createdAt,value
2019-02-17T00:00:09.637Z,93.13
2019-02-17T00:01:09.518Z,92.57
2019-02-17T00:02:09.474Z,93.32
2019-02-17T00:03:09.405Z,93.42
2019-02-17T00:04:09.356Z,93.80
2019-02-17T00:05:09.390Z,93.80
2019-02-17T00:06:09.221Z,93.89
2019-02-17T00:07:09.175Z,93.80
2019-02-17T00:08:09.157Z,93.32
2019-02-17T00:09:09.057Z,93.32
2019-02-17T00:10:09.027Z,93.23
2019-02-17T00:11:09.019Z,93.42
2019-02-17T00:12:08.891Z,93.04
2019-02-17T00:13:08.835Z,93.42
2019-02-17T00:14:08.810Z,92.94
2019-02-17T00:15:08.725Z,92.76
2019-02-17T00:16:08.725Z,92.47
2019-02-17T00:17:08.607Z,92.94
2019-02-17T00:18:08.550Z,92.57
2019-02-17T00:19:08.556Z,92.76
2019-02-17T00:20:08.440Z,92.76
2019-02-17T00:21:08.476Z,92.76
2019-02-17T00:22:08.335Z,93.04
2019-02-17T00:23:08.285Z,92.85
2019-02-17T00:24:08.209Z,92.94
2019-02-17T00:25:08.195Z,93.13
2019-02-17T00:26:08.160Z,92.85
2019-02-17T00:27:08.052Z,92.76
2019-02-17T00:28:08.013Z,92.57
2019-02-17T00:29:07.958Z,93.70
2019-02-17T00:30:07.878Z,93.80
2019-02-17T00:31:07.853Z,93.42
2019-02-17T00:32:07.774Z,93.80
2019-02-17T00:33:07.750Z,93.04
2019-02-17T00:34:07.680Z,93.70
2019-02-17T00:35:07.671Z,93.70
2019-02-17T00:36:07.581Z,93.42
2019-02-17T00:37:07.481Z,93.42
2019-02-17T00:38:07.424Z,93.80
2019-02-17T00:39:07.368Z,93.80
2019-02-17T00:40:07.308Z,93.42
2019-02-17T00:41:07.293Z,92.85
2019-02-17T00:42:07.204Z,92.94
2019-02-17T00:43:07.137Z,93.23
2019-02-17T00:44:07.114Z,93.23
2019-02-17T00:45:07.067Z,92.94
2019-02-17T00:46:07.026Z,92.47
2019-02-17T00:47:06.920Z,93.04
2019-02-17T00:48:06.876Z,92.85
2019-02-17T00:49:06.815Z,93.80
2019-02-17T00:50:06.753Z,93.80
2019-02-17T00:51:06.727Z,93.89
2019-02-17T00:52:06.635Z,93.80
2019-02-17T00:53:06.667Z,93.70
2019-02-17T00:54:06.519Z,93.51
2019-02-17T00:55:06.489Z,93.42
2019-02-17T00:56:06.450Z,93.80
2019-02-17T00:57:06.358Z,93.80
2019-02-17T00:58:06.299Z,93.61
2019-02-17T00:59:10.235Z,93.89
2019-02-17T01:00:06.197Z,93.80
2019-02-17T01:01:06.166Z,93.51
2019-02-17T01:02:06.091Z,93.70
2019-02-17T01:03:06.046Z,93.70
2019-02-17T01:04:06.002Z,93.51
2019-02-17T01:05:05.913Z,93.70
2019-02-17T01:06:05.897Z,93.70
2019-02-17T01:07:05.803Z,93.51
2019-02-17T01:08:05.769Z,93.42
2019-02-17T01:09:05.715Z,93.51
2019-02-17T01:10:05.628Z,93.42
2019-02-17T01:11:05.639Z,93.51
2019-02-17T01:12:05.505Z,93.70
2019-02-17T01:13:05.450Z,93.80
2019-02-17T01:14:05.405Z,93.80
2019-02-17T01:15:05.376Z,93.80
2019-02-17T01:16:05.295Z,93.51
2019-02-17T01:17:05.273Z,93.42
2019-02-17T01:18:05.180Z,93.51
2019-02-17T01:19:05.123Z,93.70
2019-02-17T01:20:05.072Z,93.51
2019-02-17T01:21:05.007Z,93.99
2019-02-17T01:22:05.026Z,93.51
2019-02-17T01:23:04.894Z,93.80
2019-02-17T01:24:04.859Z,93.70
2019-02-17T01:25:04.777Z,93.70
2019-02-17T01:26:04.743Z,93.51
2019-02-17T01:27:04.698Z,94.08
2019-02-17T01:28:04.617Z,93.80
2019-02-17T01:29:04.560Z,93.99
2019-02-17T01:30:04.520Z,93.42
2019-02-17T01:31:04.450Z,93.70
2019-02-17T01:32:04.446Z,93.70
2019-02-17T01:33:04.323Z,93.80
2019-02-17T01:34:04.273Z,92.94
2019-02-17T01:35:04.228Z,93.04
2019-02-17T01:36:04.173Z,93.42
2019-02-17T01:37:04.128Z,93.13
2019-02-17T01:38:04.041Z,93.04
2019-02-17T01:39:03.987Z,92.76
2019-02-17T01:40:03.935Z,92.76
2019-02-17T01:41:03.920Z,92.85
2019-02-17T01:42:03.851Z,92.94
2019-02-17T01:43:03.798Z,93.04
2019-02-17T01:44:03.708Z,92.85
2019-02-17T01:45:03.667Z,92.66
2019-02-17T01:46:03.599Z,92.76
2019-02-17T01:47:03.583Z,93.23
2019-02-17T01:48:03.510Z,93.23
2019-02-17T01:49:03.430Z,93.13
2019-02-17T01:50:03.360Z,92.94
2019-02-17T01:51:03.334Z,93.13
2019-02-17T01:52:03.313Z,93.13
2019-02-17T01:53:03.193Z,93.51
2019-02-17T01:54:03.146Z,93.70
2019-02-17T01:55:03.121Z,93.61
2019-02-17T01:56:03.064Z,93.80
2019-02-17T01:57:03.003Z,93.89
2019-02-17T01:58:02.917Z,93.70
2019-02-17T01:59:02.858Z,93.42
2019-02-17T02:00:02.798Z,93.80
2019-02-17T02:01:02.767Z,93.94
2019-02-17T02:02:02.740Z,93.51
2019-02-17T02:03:02.643Z,93.65
2019-02-17T02:04:02.594Z,93.75
2019-02-17T02:05:02.544Z,93.80
2019-02-17T02:06:02.464Z,93.70
2019-02-17T02:07:02.465Z,93.75
2019-02-17T02:08:02.352Z,93.84
2019-02-17T02:09:02.318Z,93.84
2019-02-17T02:10:02.235Z,93.27
2019-02-17T02:11:02.179Z,93.18
2019-02-17T02:12:02.187Z,93.75
2019-02-17T02:13:02.099Z,93.84
2019-02-17T02:14:02.023Z,93.75
2019-02-17T02:15:01.962Z,93.46
2019-02-17T02:16:01.894Z,93.46
2019-02-17T02:17:01.880Z,94.23
2019-02-17T02:18:01.863Z,94.04
2019-02-17T02:19:01.733Z,94.23
2019-02-17T02:20:01.690Z,94.23
2019-02-17T02:21:01.609Z,94.42
2019-02-17T02:22:01.565Z,94.23
2019-02-17T02:23:01.522Z,94.13
2019-02-17T02:24:01.446Z,94.04
2019-02-17T02:25:01.396Z,94.23
2019-02-17T02:26:01.384Z,93.56
2019-02-17T02:27:01.380Z,93.65
2019-02-17T02:28:01.260Z,93.65
2019-02-17T02:29:01.181Z,94.13
2019-02-17T02:30:01.167Z,93.84
2019-02-17T02:31:01.042Z,93.65
2019-02-17T02:32:00.997Z,93.65
2019-02-17T02:33:00.996Z,94.04
2019-02-17T02:34:00.881Z,93.65
2019-02-17T02:35:00.814Z,94.42
2019-02-17T02:36:00.800Z,94.23
2019-02-17T02:37:00.732Z,94.04
2019-02-17T02:38:00.688Z,94.23
2019-02-17T02:39:00.598Z,94.23
2019-02-17T02:40:00.543Z,94.04
2019-02-17T02:41:00.512Z,93.94
2019-02-17T02:42:00.426Z,93.84
2019-02-17T02:43:00.390Z,94.42
2019-02-17T02:44:00.321Z,94.13
2019-02-17T02:45:00.401Z,94.42
2019-02-17T02:46:00.198Z,94.42
2019-02-17T02:47:00.166Z,94.13
2019-02-17T02:48:00.174Z,94.23
2019-02-17T02:49:00.051Z,94.23
2019-02-17T02:49:59.976Z,94.23
2019-02-17T02:50:59.919Z,94.23
2019-02-17T02:51:59.856Z,93.94
2019-02-17T02:52:59.861Z,94.42
2019-02-17T02:53:59.744Z,93.94
2019-02-17T02:54:59.683Z,94.13
2019-02-17T02:55:59.644Z,94.13
2019-02-17T02:56:59.572Z,94.23
2019-02-17T02:57:59.563Z,94.23
2019-02-17T02:58:59.461Z,93.94
2019-02-17T02:59:59.419Z,94.42
2019-02-17T03:00:59.343Z,94.60
2019-02-17T03:01:59.309Z,94.79
2019-02-17T03:02:59.307Z,94.70
2019-02-17T03:03:59.222Z,94.89
2019-02-17T03:04:59.168Z,94.79
2019-02-17T03:05:59.078Z,94.60
2019-02-17T03:06:59.024Z,94.51
2019-02-17T03:07:58.997Z,94.51
2019-02-17T03:08:58.915Z,94.70
2019-02-17T03:09:58.835Z,94.70
2019-02-17T03:10:58.801Z,94.51
2019-02-17T03:11:58.759Z,94.42
2019-02-17T03:12:58.671Z,94.70
2019-02-17T03:13:58.657Z,94.42
2019-02-17T03:14:58.569Z,94.23
2019-02-17T03:15:58.510Z,94.23
2019-02-17T03:17:00.697Z,94.60
2019-02-17T03:17:58.412Z,94.79
2019-02-17T03:18:58.367Z,94.79
2019-02-17T03:19:58.282Z,94.89
2019-02-17T03:20:58.217Z,94.89
2019-02-17T03:21:58.157Z,94.60
2019-02-17T03:22:58.094Z,94.23
2019-02-17T03:23:58.069Z,95.07
2019-02-17T03:24:58.001Z,94.79
2019-02-17T03:25:57.952Z,94.51
2019-02-17T03:26:57.871Z,94.23
2019-02-17T03:27:57.824Z,94.32
2019-02-17T03:28:57.799Z,94.23
2019-02-17T03:30:04.837Z,94.13
2019-02-17T03:30:57.648Z,94.23
2019-02-17T03:31:57.587Z,94.42
2019-02-17T03:32:57.534Z,94.23
2019-02-17T03:33:57.518Z,94.23
2019-02-17T03:34:57.422Z,94.13
2019-02-17T03:35:57.376Z,93.84
2019-02-17T03:36:57.314Z,93.75
2019-02-17T03:37:57.259Z,94.04
2019-02-17T03:38:57.213Z,94.13
2019-02-17T03:39:57.153Z,94.13
2019-02-17T03:40:57.145Z,94.04
2019-02-17T03:41:57.065Z,94.32
2019-02-17T03:42:56.973Z,94.04
2019-02-17T03:43:56.965Z,93.65
2019-02-17T03:44:56.900Z,93.65
2019-02-17T03:45:56.839Z,94.04
2019-02-17T03:46:56.734Z,94.23
2019-02-17T03:47:56.677Z,93.94
2019-02-17T03:48:56.671Z,94.04
2019-02-17T03:49:56.566Z,94.89
2019-02-17T03:50:56.511Z,94.70
2019-02-17T03:51:56.461Z,94.79
2019-02-17T03:52:56.405Z,94.70
2019-02-17T03:53:56.375Z,94.79
2019-02-17T03:54:56.284Z,94.51
2019-02-17T03:55:56.287Z,94.89
2019-02-17T03:56:56.198Z,94.60
2019-02-17T03:57:56.108Z,94.70
2019-02-17T03:58:56.081Z,94.51
2019-02-17T03:59:56.015Z,94.51
2019-02-17T04:00:55.961Z,94.32
2019-02-17T04:01:55.914Z,94.42
2019-02-17T04:02:55.833Z,94.51
2019-02-17T04:03:55.813Z,94.51
2019-02-17T04:04:55.709Z,94.51
2019-02-17T04:05:55.659Z,94.98
2019-02-17T04:06:55.603Z,94.79
2019-02-17T04:07:55.548Z,94.70
2019-02-17T04:08:55.587Z,94.32
2019-02-17T04:09:55.459Z,94.70
2019-02-17T04:10:55.388Z,95.07
2019-02-17T04:11:55.316Z,94.89
2019-02-17T04:12:55.268Z,94.51
2019-02-17T04:13:55.237Z,94.70
2019-02-17T04:14:55.154Z,94.70
2019-02-17T04:15:55.090Z,94.51
2019-02-17T04:16:55.034Z,94.70
2019-02-17T04:17:54.993Z,94.51
2019-02-17T04:18:54.952Z,94.51
2019-02-17T04:19:54.861Z,94.32
2019-02-17T04:20:54.846Z,94.79
2019-02-17T04:21:54.753Z,94.60
2019-02-17T04:22:54.699Z,94.89
2019-02-17T04:23:54.687Z,94.60
2019-02-17T04:24:54.576Z,94.79
2019-02-17T04:25:54.599Z,94.89
2019-02-17T04:26:54.462Z,94.79
2019-02-17T04:27:54.407Z,94.51
2019-02-17T04:28:54.481Z,94.23
2019-02-17T04:29:54.318Z,94.70
2019-02-17T04:30:54.233Z,94.98
2019-02-17T04:31:54.188Z,94.70
2019-02-17T04:32:54.132Z,94.04
2019-02-17T04:33:54.100Z,94.89
2019-02-17T04:34:54.151Z,94.60
2019-02-17T04:35:53.987Z,94.51
2019-02-17T04:36:54.144Z,94.89
2019-02-17T04:37:53.835Z,94.89
2019-02-17T04:38:53.789Z,94.89
2019-02-17T04:39:53.751Z,94.98
2019-02-17T04:40:53.694Z,94.79
2019-02-17T04:41:53.646Z,94.79
2019-02-17T04:42:53.558Z,94.32
2019-02-17T04:43:53.492Z,94.70
2019-02-17T04:44:53.484Z,94.70
2019-02-17T04:45:53.382Z,94.79
2019-02-17T04:46:53.332Z,94.51
2019-02-17T04:47:53.286Z,94.51
2019-02-17T04:48:53.212Z,94.51
2019-02-17T04:49:53.188Z,94.98
2019-02-17T04:50:53.107Z,94.79
2019-02-17T04:51:53.041Z,94.79
2019-02-17T04:52:52.998Z,94.51
2019-02-17T04:53:52.945Z,94.84
2019-02-17T04:54:52.912Z,94.65
2019-02-17T04:55:52.822Z,94.65
2019-02-17T04:56:52.759Z,94.65
2019-02-17T04:57:52.709Z,94.74
2019-02-17T04:58:52.652Z,94.74
2019-02-17T04:59:52.636Z,95.40
2019-02-17T05:00:52.554Z,95.21
2019-02-17T05:01:52.472Z,95.21
2019-02-17T05:02:52.418Z,95.31
2019-02-17T05:03:52.365Z,94.93
2019-02-17T05:04:52.429Z,95.03
2019-02-17T05:05:52.263Z,95.12
2019-02-17T05:06:52.203Z,95.12
2019-02-17T05:07:52.134Z,94.93
2019-02-17T05:08:52.086Z,95.21
2019-02-17T05:09:52.057Z,94.93
2019-02-17T05:10:51.969Z,95.36
2019-02-17T05:11:51.937Z,95.07
2019-02-17T05:12:51.865Z,95.26
2019-02-17T05:13:51.807Z,95.17
2019-02-17T05:14:51.755Z,94.98
2019-02-17T05:15:51.692Z,95.07
2019-02-17T05:16:51.647Z,95.17
2019-02-17T05:17:51.609Z,95.26
2019-02-17T05:18:51.543Z,95.17
2019-02-17T05:19:51.477Z,94.60
2019-02-17T05:20:51.398Z,94.98
2019-02-17T05:21:51.337Z,94.60
2019-02-17T05:22:51.293Z,94.51
2019-02-17T05:23:51.229Z,94.60
2019-02-17T05:24:51.166Z,94.51
2019-02-17T05:25:51.154Z,94.32
2019-02-17T05:26:51.060Z,94.60
2019-02-17T05:27:51.012Z,94.70
2019-02-17T05:28:50.960Z,94.79
2019-02-17T05:29:50.891Z,94.70
2019-02-17T05:30:53.153Z,94.60
2019-02-17T05:31:50.767Z,94.51
2019-02-17T05:32:50.712Z,94.89
2019-02-17T05:33:50.649Z,94.23
2019-02-17T05:34:50.608Z,94.13
2019-02-17T05:35:50.572Z,94.23
2019-02-17T05:36:50.479Z,94.13
2019-02-17T05:37:50.431Z,93.94
2019-02-17T05:38:50.381Z,93.84
2019-02-17T05:39:50.326Z,93.84
2019-02-17T05:40:50.314Z,94.04
2019-02-17T05:41:50.200Z,93.27
2019-02-17T05:42:50.142Z,93.65
2019-02-17T05:43:50.099Z,93.65
2019-02-17T05:44:50.031Z,93.65
2019-02-17T05:45:50.008Z,93.46
2019-02-17T05:46:49.925Z,93.65
2019-02-17T05:47:49.860Z,93.84
2019-02-17T05:48:49.814Z,93.75
2019-02-17T05:49:49.744Z,93.75
2019-02-17T05:50:49.724Z,93.56
2019-02-17T05:51:49.693Z,93.75
2019-02-17T05:52:49.608Z,93.94
2019-02-17T05:53:49.543Z,93.84
2019-02-17T05:54:50.490Z,93.94
2019-02-17T05:55:49.442Z,93.94
2019-02-17T05:56:49.356Z,93.65
2019-02-17T05:57:49.314Z,93.84
2019-02-17T05:58:49.261Z,93.75
2019-02-17T05:59:49.183Z,93.46
2019-02-17T06:00:49.144Z,93.27
2019-02-17T06:01:49.069Z,93.56
2019-02-17T06:02:49.021Z,93.56
2019-02-17T06:03:48.982Z,93.65
2019-02-17T06:04:48.900Z,93.94
2019-02-17T06:05:48.872Z,93.65
2019-02-17T06:06:48.800Z,94.32
2019-02-17T06:07:48.752Z,94.04
2019-02-17T06:08:48.674Z,94.32
2019-02-17T06:09:48.614Z,94.04
2019-02-17T06:10:48.600Z,93.84
2019-02-17T06:11:48.501Z,94.04
2019-02-17T06:12:48.451Z,94.23
2019-02-17T06:13:48.399Z,94.23
2019-02-17T06:14:48.346Z,94.42
2019-02-17T06:15:48.325Z,93.84
2019-02-17T06:16:48.226Z,94.32
2019-02-17T06:17:48.173Z,94.23
2019-02-17T06:18:48.114Z,94.23
2019-02-17T06:19:48.074Z,94.04
2019-02-17T06:20:48.016Z,94.23
2019-02-17T06:21:47.961Z,94.23
2019-02-17T06:22:47.931Z,94.23
2019-02-17T06:23:47.821Z,94.23
2019-02-17T06:24:47.791Z,94.79
2019-02-17T06:25:47.708Z,94.60
2019-02-17T06:26:47.676Z,94.60
2019-02-17T06:27:47.593Z,94.51
2019-02-17T06:28:47.544Z,94.51
2019-02-17T06:29:49.096Z,94.70
2019-02-17T06:30:47.455Z,94.70
2019-02-17T06:31:47.385Z,94.42
2019-02-17T06:32:47.316Z,94.79
2019-02-17T06:33:47.253Z,94.70
2019-02-17T06:34:47.205Z,94.60
2019-02-17T06:35:47.129Z,94.79
2019-02-17T06:36:47.121Z,94.60
2019-02-17T06:37:47.031Z,94.79
2019-02-17T06:38:46.974Z,94.42
2019-02-17T06:39:46.911Z,94.89
2019-02-17T06:40:46.892Z,94.79
2019-02-17T06:41:46.826Z,94.70
2019-02-17T06:42:46.749Z,94.89
2019-02-17T06:43:46.710Z,94.89
2019-02-17T06:44:46.633Z,94.42
2019-02-17T06:45:46.634Z,94.79
2019-02-17T06:46:46.556Z,94.70
2019-02-17T06:47:46.464Z,94.60
2019-02-17T06:48:46.412Z,94.98
2019-02-17T06:49:46.360Z,94.42
2019-02-17T06:50:46.286Z,94.60
2019-02-17T06:51:46.285Z,94.51
2019-02-17T06:52:46.181Z,94.32
2019-02-17T06:53:46.162Z,94.79
2019-02-17T06:54:46.066Z,94.23
2019-02-17T06:55:46.014Z,94.04
2019-02-17T06:56:45.963Z,94.13
2019-02-17T06:57:45.893Z,94.98
2019-02-17T06:58:45.845Z,94.13
2019-02-17T06:59:45.775Z,94.70
2019-02-17T07:00:45.722Z,94.42
2019-02-17T07:01:45.709Z,94.79
2019-02-17T07:02:45.605Z,94.79
2019-02-17T07:03:45.569Z,94.70
2019-02-17T07:04:45.506Z,94.89
2019-02-17T07:05:45.459Z,94.89
2019-02-17T07:06:45.426Z,95.07
2019-02-17T07:07:45.342Z,94.23
2019-02-17T07:08:45.285Z,94.32
2019-02-17T07:09:45.298Z,94.23
2019-02-17T07:10:45.184Z,95.07
2019-02-17T07:11:45.087Z,94.04
2019-02-17T07:12:45.070Z,93.94
2019-02-17T07:13:44.984Z,93.65
2019-02-17T07:14:44.933Z,93.94
2019-02-17T07:15:44.875Z,93.75
2019-02-17T07:16:44.819Z,94.04
2019-02-17T07:17:44.795Z,93.65
2019-02-17T07:18:44.721Z,93.84
2019-02-17T07:19:44.654Z,93.84
2019-02-17T07:20:44.666Z,93.65
2019-02-17T07:21:44.530Z,93.94
2019-02-17T07:22:44.495Z,94.04
2019-02-17T07:23:44.502Z,93.84
2019-02-17T07:24:44.376Z,93.65
2019-02-17T07:25:44.337Z,94.32
2019-02-17T07:26:44.262Z,93.75
2019-02-17T07:27:44.213Z,94.32
2019-02-17T07:28:44.138Z,93.75
2019-02-17T07:29:44.075Z,93.37
2019-02-17T07:30:44.015Z,93.84
2019-02-17T07:31:43.966Z,93.61
2019-02-17T07:32:43.936Z,93.56
2019-02-17T07:33:43.842Z,93.61
2019-02-17T07:34:43.857Z,93.51
2019-02-17T07:35:43.739Z,93.70
2019-02-17T07:36:43.730Z,93.89
2019-02-17T07:37:43.682Z,93.99
2019-02-17T07:38:43.564Z,93.13
2019-02-17T07:39:43.520Z,93.42
2019-02-17T07:40:43.448Z,93.23
2019-02-17T07:41:43.407Z,93.13
2019-02-17T07:42:43.371Z,92.57
2019-02-17T07:43:43.315Z,92.76
2019-02-17T07:44:43.290Z,92.94
2019-02-17T07:45:43.204Z,93.04
2019-02-17T07:46:43.118Z,92.94
2019-02-17T07:47:43.083Z,93.13
2019-02-17T07:48:43.020Z,92.85
2019-02-17T07:49:42.946Z,92.76
2019-02-17T07:50:42.924Z,92.28
2019-02-17T07:51:42.832Z,93.13
2019-02-17T07:52:42.816Z,93.13
2019-02-17T07:53:42.753Z,92.38
2019-02-17T07:54:42.678Z,92.76
2019-02-17T07:55:42.620Z,92.28
2019-02-17T07:56:42.566Z,92.33
2019-02-17T07:57:42.537Z,92.23
2019-02-17T07:58:42.435Z,92.33
2019-02-17T07:59:42.392Z,92.52
2019-02-17T08:00:42.328Z,92.61
2019-02-17T08:01:45.208Z,92.52
2019-02-17T08:02:42.257Z,92.04
2019-02-17T08:03:42.166Z,92.42
2019-02-17T08:04:42.103Z,92.23
2019-02-17T08:05:42.065Z,92.23
2019-02-17T08:06:42.000Z,91.66
2019-02-17T08:07:41.938Z,91.85
2019-02-17T08:08:41.907Z,91.57
2019-02-17T08:09:41.826Z,91.47
2019-02-17T08:10:41.770Z,91.57
2019-02-17T08:11:41.722Z,91.57
2019-02-17T08:12:41.673Z,91.09
2019-02-17T08:13:41.631Z,91.09
2019-02-17T08:14:41.558Z,91.28
2019-02-17T08:15:41.492Z,90.91
2019-02-17T08:16:41.456Z,91.09
2019-02-17T08:17:41.381Z,91.05
2019-02-17T08:18:41.343Z,90.76
2019-02-17T08:19:41.283Z,90.10
2019-02-17T08:20:41.214Z,90.76
2019-02-17T08:21:41.158Z,90.57
2019-02-17T08:22:41.108Z,90.57
2019-02-17T08:23:41.121Z,90.19
2019-02-17T08:24:40.999Z,90.29
2019-02-17T08:25:40.939Z,90.76
2019-02-17T08:26:40.896Z,90.57
2019-02-17T08:27:40.839Z,90.19
2019-02-17T08:28:42.563Z,89.72
2019-02-17T08:29:40.722Z,89.72
2019-02-17T08:30:40.659Z,89.39
2019-02-17T08:31:40.605Z,89.67
2019-02-17T08:32:40.548Z,89.39
2019-02-17T08:33:40.528Z,88.91
2019-02-17T08:34:40.440Z,89.10
2019-02-17T08:35:40.384Z,88.34
2019-02-17T08:36:40.333Z,88.34
2019-02-17T08:37:40.321Z,87.96
2019-02-17T08:38:40.262Z,87.87
2019-02-17T08:39:40.172Z,87.87
2019-02-17T08:40:40.113Z,87.58
2019-02-17T08:41:40.059Z,87.91
2019-02-17T08:42:40.017Z,87.91
2019-02-17T08:43:39.977Z,87.72
2019-02-17T08:44:39.935Z,87.24
2019-02-17T08:45:39.841Z,86.96
2019-02-17T08:46:39.793Z,87.34
2019-02-17T08:47:39.729Z,86.87
2019-02-17T08:48:39.707Z,86.30
2019-02-17T08:49:39.624Z,86.39
2019-02-17T08:50:39.562Z,86.58
2019-02-17T08:51:39.508Z,86.01
2019-02-17T08:52:39.470Z,85.82
2019-02-17T08:53:39.426Z,86.24
2019-02-17T08:54:39.369Z,85.86
2019-02-17T08:55:39.286Z,85.86
2019-02-17T08:56:39.243Z,85.11
2019-02-17T08:57:39.188Z,84.72
2019-02-17T08:58:39.161Z,84.91
2019-02-17T08:59:39.072Z,85.01
2019-02-17T09:00:39.014Z,84.20
2019-02-17T09:01:40.493Z,84.48
2019-02-17T09:02:40.746Z,84.10
2019-02-17T09:03:38.894Z,83.91
2019-02-17T09:04:38.804Z,83.06
2019-02-17T09:05:44.106Z,83.15
2019-02-17T09:06:38.713Z,83.53
2019-02-17T09:07:38.649Z,82.77
2019-02-17T09:08:38.616Z,82.58
2019-02-17T09:09:38.535Z,82.39
2019-02-17T09:10:38.485Z,82.43
2019-02-17T09:11:38.443Z,81.58
2019-02-17T09:12:38.368Z,82.34
2019-02-17T09:13:38.344Z,81.96
2019-02-17T09:14:38.269Z,81.67
2019-02-17T09:15:38.231Z,82.15
2019-02-17T09:16:38.159Z,81.67
2019-02-17T09:17:38.108Z,81.48
2019-02-17T09:18:38.079Z,81.01
2019-02-17T09:19:38.039Z,81.20
2019-02-17T09:20:37.954Z,80.72
2019-02-17T09:21:37.967Z,80.57
2019-02-17T09:22:37.851Z,80.24
2019-02-17T09:23:37.822Z,80.38
2019-02-17T09:24:37.755Z,80.19
2019-02-17T09:25:37.681Z,79.81
2019-02-17T09:26:37.637Z,79.81
2019-02-17T09:27:37.580Z,79.62
2019-02-17T09:28:37.524Z,79.24
2019-02-17T09:29:37.499Z,78.57
2019-02-17T09:30:37.415Z,78.67
2019-02-17T09:31:37.370Z,78.57
2019-02-17T09:32:37.316Z,78.38
2019-02-17T09:33:37.268Z,78.57
2019-02-17T09:34:37.229Z,78.77
2019-02-17T09:35:37.143Z,78.67
2019-02-17T09:36:37.246Z,78.48
2019-02-17T09:37:37.040Z,78.29
2019-02-17T09:38:36.999Z,78.00
2019-02-17T09:39:36.961Z,77.95
2019-02-17T09:40:36.896Z,77.66
2019-02-17T09:41:36.841Z,77.56
2019-02-17T09:42:36.783Z,77.66
2019-02-17T09:43:36.744Z,77.56
2019-02-17T09:44:36.699Z,76.90
2019-02-17T09:45:36.622Z,76.71
2019-02-17T09:46:36.572Z,75.76
2019-02-17T09:47:36.579Z,76.71
2019-02-17T09:48:36.483Z,76.71
2019-02-17T09:49:36.478Z,76.61
2019-02-17T09:50:36.368Z,76.90
2019-02-17T09:51:36.309Z,76.52
2019-02-17T09:52:36.254Z,76.37
2019-02-17T09:53:36.208Z,75.79
2019-02-17T09:54:36.180Z,75.51
2019-02-17T09:55:36.106Z,75.32
2019-02-17T09:56:36.053Z,75.42
2019-02-17T09:57:36.011Z,75.04
2019-02-17T09:58:35.943Z,75.23
2019-02-17T09:59:35.938Z,75.13
2019-02-17T10:00:35.836Z,74.94
2019-02-17T10:01:35.789Z,74.37
2019-02-17T10:02:35.732Z,74.56
2019-02-17T10:03:35.692Z,74.46
2019-02-17T10:04:35.667Z,74.75
2019-02-17T10:05:35.587Z,74.56
2019-02-17T10:06:35.554Z,74.60
2019-02-17T10:07:35.472Z,74.79
2019-02-17T10:08:35.426Z,74.56
2019-02-17T10:09:35.370Z,74.40
2019-02-17T10:10:35.360Z,73.93
2019-02-17T10:11:35.287Z,73.93
2019-02-17T10:12:35.214Z,74.21
2019-02-17T10:13:35.176Z,73.07
2019-02-17T10:14:35.112Z,73.26
2019-02-17T10:15:35.101Z,73.36
2019-02-17T10:16:35.011Z,73.07
2019-02-17T10:17:34.957Z,72.97
2019-02-17T10:18:34.907Z,73.36
2019-02-17T10:19:34.856Z,72.63
2019-02-17T10:20:34.829Z,72.53
2019-02-17T10:21:34.752Z,72.53
2019-02-17T10:22:34.696Z,73.01
2019-02-17T10:23:34.658Z,72.72
2019-02-17T10:24:34.598Z,72.72
2019-02-17T10:25:34.573Z,72.16
2019-02-17T10:26:34.493Z,73.01
2019-02-17T10:27:34.463Z,72.82
2019-02-17T10:28:42.045Z,72.44
2019-02-17T10:29:34.351Z,72.92
2019-02-17T10:30:34.312Z,72.16
2019-02-17T10:31:34.237Z,71.96
2019-02-17T10:32:37.277Z,72.63
2019-02-17T10:33:34.129Z,73.01
2019-02-17T10:34:34.089Z,72.92
2019-02-17T10:35:34.070Z,72.53
2019-02-17T10:36:33.989Z,71.96
2019-02-17T10:37:33.927Z,71.96
2019-02-17T10:38:33.886Z,71.48
2019-02-17T10:39:33.831Z,71.01
2019-02-17T10:40:33.797Z,70.44
2019-02-17T10:41:33.727Z,70.63
2019-02-17T10:42:33.677Z,70.92
2019-02-17T10:43:33.618Z,70.63
2019-02-17T10:44:33.576Z,70.53
2019-02-17T10:45:33.549Z,70.19
2019-02-17T10:46:33.465Z,69.81
2019-02-17T10:47:33.412Z,69.87
2019-02-17T10:48:33.369Z,69.77
2019-02-17T10:49:33.316Z,70.38
2019-02-17T10:50:33.325Z,70.76
2019-02-17T10:51:33.216Z,70.95
2019-02-17T10:52:33.158Z,69.62
2019-02-17T10:53:33.141Z,70.09
2019-02-17T10:54:33.094Z,69.43
2019-02-17T10:55:33.080Z,70.00
2019-02-17T10:56:32.951Z,69.43
2019-02-17T10:57:32.928Z,69.81
2019-02-17T10:58:32.871Z,69.33
2019-02-17T10:59:32.826Z,69.62
2019-02-17T11:00:32.751Z,69.43
2019-02-17T11:01:32.741Z,70.00
2019-02-17T11:02:32.646Z,69.43
2019-02-17T11:03:32.608Z,69.81
2019-02-17T11:04:32.561Z,69.04
2019-02-17T11:05:32.501Z,70.19
2019-02-17T11:06:32.495Z,70.47
2019-02-17T11:07:32.422Z,69.33
2019-02-17T11:08:32.350Z,69.81
2019-02-17T11:09:32.312Z,69.81
2019-02-17T11:10:32.251Z,69.71
2019-02-17T11:11:32.243Z,69.33
2019-02-17T11:12:32.162Z,69.81
2019-02-17T11:13:32.091Z,68.95
2019-02-17T11:14:32.033Z,69.37
2019-02-17T11:15:31.988Z,69.17
2019-02-17T11:16:31.967Z,68.70
2019-02-17T11:17:31.884Z,68.41
2019-02-17T11:18:31.855Z,68.41
2019-02-17T11:19:31.784Z,68.12
2019-02-17T11:20:31.750Z,68.12
2019-02-17T11:21:31.744Z,67.93
2019-02-17T11:22:31.630Z,68.51
2019-02-17T11:23:31.602Z,67.97
2019-02-17T11:24:31.546Z,68.41
2019-02-17T11:25:31.488Z,67.97
2019-02-17T11:26:31.483Z,68.26
2019-02-17T11:27:31.378Z,67.97
2019-02-17T11:28:31.332Z,67.58
2019-02-17T11:29:31.314Z,67.07
2019-02-17T11:30:31.223Z,67.21
2019-02-17T11:31:31.209Z,66.92
2019-02-17T11:32:32.310Z,67.40
2019-02-17T11:33:31.079Z,67.30
2019-02-17T11:34:31.045Z,66.63
2019-02-17T11:35:31.001Z,67.11
2019-02-17T11:36:30.955Z,66.92
2019-02-17T11:37:30.872Z,66.82
2019-02-17T11:38:30.834Z,66.53
2019-02-17T11:39:30.772Z,65.96
2019-02-17T11:40:30.742Z,65.58
2019-02-17T11:41:30.724Z,66.35
2019-02-17T11:42:30.632Z,66.25
2019-02-17T11:43:30.592Z,66.35
2019-02-17T11:44:31.991Z,66.82
2019-02-17T11:45:30.475Z,65.77
2019-02-17T11:46:30.456Z,65.67
2019-02-17T11:47:30.375Z,65.61
2019-02-17T11:48:30.341Z,65.90
2019-02-17T11:49:30.269Z,65.61
2019-02-17T11:50:30.223Z,65.71
2019-02-17T11:51:30.199Z,64.18
2019-02-17T11:52:30.121Z,64.85
2019-02-17T11:53:30.069Z,65.61
2019-02-17T11:54:30.021Z,66.00
2019-02-17T11:55:29.970Z,65.33
2019-02-17T11:56:29.940Z,64.75
2019-02-17T11:57:29.889Z,65.14
2019-02-17T11:58:29.818Z,64.18
2019-02-17T11:59:29.765Z,64.37
2019-02-17T12:00:29.739Z,64.09
2019-02-17T12:01:29.691Z,64.75
2019-02-17T12:02:29.653Z,64.56
2019-02-17T12:03:29.574Z,64.75
2019-02-17T12:04:29.527Z,64.09
2019-02-17T12:05:29.491Z,63.70
2019-02-17T12:06:29.466Z,63.83
2019-02-17T12:07:29.369Z,64.09
2019-02-17T12:08:29.328Z,63.60
2019-02-17T12:09:29.266Z,63.26
2019-02-17T12:10:29.286Z,63.26
2019-02-17T12:11:29.199Z,63.16
2019-02-17T12:12:29.135Z,64.31
2019-02-17T12:13:29.067Z,62.59
2019-02-17T12:14:29.022Z,62.30
2019-02-17T12:15:28.963Z,62.11
2019-02-17T12:16:36.707Z,61.35
2019-02-17T12:17:28.932Z,62.49
2019-02-17T12:18:28.830Z,62.59
2019-02-17T12:19:28.773Z,63.16
2019-02-17T12:20:28.717Z,63.54
2019-02-17T12:21:28.695Z,62.87
2019-02-17T12:22:28.628Z,63.26
2019-02-17T12:23:28.590Z,63.16
2019-02-17T12:24:28.522Z,62.49
2019-02-17T12:25:28.489Z,61.54
2019-02-17T12:26:28.438Z,60.58
2019-02-17T12:27:28.379Z,61.09
2019-02-17T12:28:28.343Z,60.87
2019-02-17T12:29:28.275Z,61.28
2019-02-17T12:30:28.301Z,60.13
2019-02-17T12:31:28.168Z,61.09
2019-02-17T12:32:28.158Z,60.61
2019-02-17T12:33:28.073Z,59.66
2019-02-17T12:34:28.060Z,59.84
2019-02-17T12:35:27.967Z,59.37
2019-02-17T12:36:27.949Z,59.47
2019-02-17T12:37:27.887Z,60.71
2019-02-17T12:38:27.815Z,60.90
2019-02-17T12:39:27.769Z,61.09
2019-02-17T12:40:27.733Z,59.56
2019-02-17T12:41:27.669Z,60.04
2019-02-17T12:42:27.686Z,59.66
2019-02-17T12:43:27.562Z,59.94
2019-02-17T12:44:27.524Z,60.23
2019-02-17T12:45:27.480Z,60.71
2019-02-17T12:46:27.422Z,61.09
2019-02-17T12:47:27.385Z,61.19
2019-02-17T12:48:27.324Z,61.47
2019-02-17T12:49:27.285Z,59.84
2019-02-17T12:50:27.223Z,60.23
2019-02-17T12:51:27.159Z,61.38